Time,TemperatureF,DewpointF,PressureIn,WindDirection,WindDirectionDegrees,WindSpeedMPH,WindSpeedGustMPH,Humidity,HourlyPrecipIn,Conditions,Clouds,dailyrainin,SolarRadiationWatts/m^2,SoftwareType,DateUTC
2013-07-24 00:10:00,66.0,63.0,23.09,SSW,210,1.0,1.0,90,0.00,,,0.00,0,Wunderground v.1.15,2013-07-24 04:10:00,
2013-07-24 00:20:00,66.2,63.5,23.09,SSW,210,0.0,2.0,91,0.00,,,0.00,0,Wunderground v.1.15,2013-07-24 04:20:00,
2013-07-24 00:30:00,66.7,63.7,23.09,SW,226,1.0,1.0,90,0.00,,,0.00,0,Wunderground v.1.15,2013-07-24 04:30:00,
2013-07-24 00:40:00,66.8,63.8,23.09,SW,226,1.0,1.0,90,0.00,,,0.00,0,Wunderground v.1.15,2013-07-24 04:40:00,
2013-07-24 00:50:00,67.3,63.9,23.09,SW,214,2.0,2.0,89,0.00,,,0.00,0,Wunderground v.1.15,2013-07-24 04:50:00,
2013-07-24 01:00:00,67.7,64.0,23.09,WSW,244,2.0,4.0,88,0.00,,,0.00,0,Wunderground v.1.15,2013-07-24 05:00:00,
2013-07-24 01:10:00,67.7,64.0,23.09,WSW,248,2.0,4.0,88,0.00,,,0.00,0,Wunderground v.1.15,2013-07-24 05:10:00,
2013-07-24 01:20:00,67.7,64.0,23.09,West,277,2.0,2.0,88,0.00,,,0.00,0,Wunderground v.1.15,2013-07-24 05:20:00,
2013-07-24 01:40:00,67.5,64.1,23.09,WNW,294,2.0,6.0,89,0.00,,,0.00,0,Wunderground v.1.15,2013-07-24 05:40:00,
2013-07-24 01:50:00,67.5,64.5,23.09,WNW,293,2.0,4.0,90,0.00,,,0.00,0,Wunderground v.1.15,2013-07-24 05:50:00,
2013-07-24 02:10:00,67.5,64.5,23.09,NW,311,2.0,5.0,90,0.00,,,0.00,0,Wunderground v.1.15,2013-07-24 06:10:00,
2013-07-24 02:20:00,67.5,64.5,23.09,West,269,2.0,3.0,90,0.00,,,0.00,0,Wunderground v.1.15,2013-07-24 06:20:00,
2013-07-24 02:40:00,67.5,64.8,23.09,WSW,242,2.0,2.0,91,0.00,,,0.00,0,Wunderground v.1.15,2013-07-24 06:40:00,
2013-07-24 02:50:00,67.5,64.8,23.09,NW,304,2.0,5.0,91,0.00,,,0.00,0,Wunderground v.1.15,2013-07-24 06:50:00,
2013-07-24 03:00:00,67.5,64.8,23.09,North,360,1.0,2.0,91,0.00,,,0.00,0,Wunderground v.1.15,2013-07-24 07:00:00,
2013-07-24 03:10:00,67.2,64.5,23.09,NW,323,2.0,2.0,91,0.00,,,0.00,0,Wunderground v.1.15,2013-07-24 07:10:00,
2013-07-24 03:20:00,67.0,64.3,23.10,NW,323,0.0,0.0,91,0.00,,,0.00,0,Wunderground v.1.15,2013-07-24 07:20:00,
2013-07-24 03:40:00,66.8,64.1,23.10,NW,323,0.0,0.0,91,0.00,,,0.00,0,Wunderground v.1.15,2013-07-24 07:40:00,
2013-07-24 03:50:00,66.5,63.8,23.10,NW,323,1.0,1.0,91,0.00,,,0.00,0,Wunderground v.1.15,2013-07-24 07:50:00,
2013-07-24 04:10:00,65.2,60.9,23.10,North,350,5.0,5.0,86,0.00,,,0.00,0,Wunderground v.1.15,2013-07-24 08:10:00,
2013-07-24 04:20:00,64.4,59.5,23.10,NNW,331,5.0,5.0,84,0.00,,,0.00,0,Wunderground v.1.15,2013-07-24 08:20:00,
2013-07-24 04:40:00,63.1,57.5,23.10,NW,321,6.0,6.0,82,0.00,,,0.00,0,Wunderground v.1.15,2013-07-24 08:40:00,
2013-07-24 04:50:00,62.6,56.7,23.10,NNW,338,5.0,5.0,81,0.00,,,0.00,0,Wunderground v.1.15,2013-07-24 08:50:00,
2013-07-24 05:10:00,62.2,56.0,23.11,North,351,4.0,4.0,80,0.00,,,0.00,0,Wunderground v.1.15,2013-07-24 09:10:00,
2013-07-24 05:20:00,62.0,55.8,23.11,NW,323,3.0,3.0,80,0.00,,,0.00,0,Wunderground v.1.15,2013-07-24 09:20:00,
2013-07-24 05:40:00,61.5,54.9,23.11,North,351,5.0,6.0,79,0.00,,,0.00,0,Wunderground v.1.15,2013-07-24 09:40:00,
2013-07-24 05:50:00,61.1,54.9,23.11,NW,310,5.0,6.0,80,0.00,,,0.00,5,Wunderground v.1.15,2013-07-24 09:50:00,
2013-07-24 06:10:00,59.2,52.7,23.12,NW,309,5.0,5.0,79,0.00,,,0.00,18,Wunderground v.1.15,2013-07-24 10:10:00,
2013-07-24 06:20:00,58.5,52.0,23.12,North,360,5.0,10.0,79,0.00,,,0.00,21,Wunderground v.1.15,2013-07-24 10:20:00,
2013-07-24 06:40:00,57.7,51.2,23.12,NNW,347,4.0,5.0,79,0.00,,,0.00,91,Wunderground v.1.15,2013-07-24 10:40:00,
2013-07-24 06:50:00,58.0,50.8,23.12,NNW,331,5.0,9.0,77,0.00,,,0.00,79,Wunderground v.1.15,2013-07-24 10:50:00,
2013-07-24 07:10:00,57.1,50.3,23.12,WNW,300,5.0,10.0,78,0.00,,,0.00,91,Wunderground v.1.15,2013-07-24 11:10:00,
2013-07-24 07:20:00,56.6,49.5,23.13,NNW,328,4.0,4.0,77,0.00,,,0.00,83,Wunderground v.1.15,2013-07-24 11:20:00,
2013-07-24 07:31:00,56.4,49.3,23.13,WNW,288,4.0,4.0,77,0.00,,,0.00,104,Wunderground v.1.15,2013-07-24 11:31:00,
2013-07-24 07:40:00,56.9,49.1,23.13,WNW,284,6.0,6.0,75,0.00,,,0.00,232,Wunderground v.1.15,2013-07-24 11:40:00,
2013-07-24 07:50:00,56.6,48.0,23.13,NNW,333,5.0,5.0,73,0.00,,,0.00,102,Wunderground v.1.15,2013-07-24 11:50:00,
2013-07-24 08:00:00,55.9,47.7,23.13,WNW,299,5.0,7.0,74,0.00,,,0.00,188,Wunderground v.1.15,2013-07-24 12:00:00,
2013-07-24 08:10:00,56.2,47.3,23.13,West,276,6.0,7.0,72,0.00,,,0.00,366,Wunderground v.1.15,2013-07-24 12:10:00,
2013-07-24 08:20:00,56.9,47.2,23.13,NNE,22,6.0,6.0,70,0.00,,,0.00,163,Wunderground v.1.15,2013-07-24 12:20:00,
2013-07-24 08:40:00,56.1,45.7,23.14,NNW,335,5.0,6.0,68,0.00,,,0.00,155,Wunderground v.1.15,2013-07-24 12:40:00,
2013-07-24 08:50:00,56.9,46.1,23.14,NNW,342,6.0,12.0,67,0.00,,,0.00,578,Wunderground v.1.15,2013-07-24 12:50:00,
2013-07-24 09:00:00,58.2,47.3,23.14,NW,321,5.0,6.0,67,0.00,,,0.00,656,Wunderground v.1.15,2013-07-24 13:00:00,
2013-07-24 09:10:00,58.8,46.6,23.14,WNW,290,5.0,5.0,64,0.00,,,0.00,216,Wunderground v.1.15,2013-07-24 13:10:00,
2013-07-24 09:20:00,57.5,46.6,23.14,NW,318,6.0,9.0,67,0.00,,,0.00,362,Wunderground v.1.15,2013-07-24 13:20:00,
2013-07-24 09:40:00,58.5,46.4,23.15,NW,309,5.0,5.0,64,0.00,,,0.00,362,Wunderground v.1.15,2013-07-24 13:40:00,
2013-07-24 09:50:00,58.0,45.9,23.15,NW,316,6.0,6.0,64,0.00,,,0.00,436,Wunderground v.1.15,2013-07-24 13:50:00,
2013-07-24 10:10:00,59.5,46.0,23.15,NW,319,5.0,5.0,61,0.00,,,0.00,343,Wunderground v.1.15,2013-07-24 14:10:00,
2013-07-24 10:20:00,59.5,46.0,23.15,WNW,287,4.0,6.0,61,0.00,,,0.00,357,Wunderground v.1.15,2013-07-24 14:20:00,
2013-07-24 10:30:00,59.8,46.3,23.15,WNW,284,3.0,3.0,61,0.00,,,0.00,272,Wunderground v.1.15,2013-07-24 14:30:00,
2013-07-24 10:40:00,59.1,45.7,23.15,WNW,299,4.0,4.0,61,0.00,,,0.00,325,Wunderground v.1.15,2013-07-24 14:40:00,
2013-07-24 10:50:00,58.8,45.4,23.15,WNW,282,6.0,7.0,61,0.00,,,0.00,327,Wunderground v.1.15,2013-07-24 14:50:00,
2013-07-24 11:00:00,58.9,45.0,23.15,NW,325,6.0,8.0,60,0.00,,,0.00,413,Wunderground v.1.15,2013-07-24 15:00:00,
2013-07-24 11:10:00,59.4,45.5,23.16,NW,320,5.0,5.0,60,0.00,,,0.00,501,Wunderground v.1.15,2013-07-24 15:10:00,
2013-07-24 11:20:00,59.5,45.6,23.16,NW,310,6.0,7.0,60,0.00,,,0.00,566,Wunderground v.1.15,2013-07-24 15:20:00,
2013-07-24 11:40:00,59.5,45.6,23.16,NNW,344,6.0,9.0,60,0.00,,,0.00,489,Wunderground v.1.15,2013-07-24 15:40:00,
2013-07-24 11:50:00,59.2,44.9,23.16,NNW,329,6.0,12.0,59,0.00,,,0.00,378,Wunderground v.1.15,2013-07-24 15:50:00,
2013-07-24 12:01:00,58.9,45.0,23.16,NW,310,7.0,8.0,60,0.00,,,0.00,520,Wunderground v.1.15,2013-07-24 16:01:00,
2013-07-24 12:10:00,59.4,45.1,23.16,NW,313,7.0,12.0,59,0.00,,,0.00,587,Wunderground v.1.15,2013-07-24 16:10:00,
2013-07-24 12:20:00,59.1,44.8,23.16,West,275,8.0,8.0,59,0.00,,,0.00,443,Wunderground v.1.15,2013-07-24 16:20:00,
2013-07-24 12:30:00,58.9,44.6,23.16,WNW,291,6.0,12.0,59,0.00,,,0.00,406,Wunderground v.1.15,2013-07-24 16:30:00,
2013-07-24 12:40:00,58.6,45.2,23.17,NW,306,7.0,7.0,61,0.00,,,0.00,399,Wunderground v.1.15,2013-07-24 16:40:00,
2013-07-24 12:50:00,59.1,45.2,23.17,NNW,346,5.0,10.0,60,0.00,,,0.00,315,Wunderground v.1.15,2013-07-24 16:50:00,
2013-07-24 13:01:00,58.3,44.0,23.17,WNW,294,7.0,8.0,59,0.00,,,0.00,369,Wunderground v.1.15,2013-07-24 17:01:00,
2013-07-24 13:10:00,58.8,44.9,23.17,WSW,258,6.0,8.0,60,0.00,,,0.00,385,Wunderground v.1.15,2013-07-24 17:10:00,
2013-07-24 13:20:00,59.5,44.2,23.17,NW,317,4.0,9.0,57,0.00,,,0.00,352,Wunderground v.1.15,2013-07-24 17:20:00,
2013-07-24 13:40:00,59.5,43.8,23.17,NNW,340,6.0,6.0,56,0.00,,,0.00,478,Wunderground v.1.15,2013-07-24 17:40:00,
2013-07-24 13:50:00,60.0,43.8,23.17,WNW,284,5.0,6.0,55,0.00,,,0.00,510,Wunderground v.1.15,2013-07-24 17:50:00,
2013-07-24 14:10:00,60.8,44.5,23.17,NW,325,7.0,7.0,55,0.00,,,0.00,1239,Wunderground v.1.15,2013-07-24 18:10:00,
2013-07-24 14:20:00,61.2,43.4,23.17,NNW,333,6.0,11.0,52,0.00,,,0.00,538,Wunderground v.1.15,2013-07-24 18:20:00,
2013-07-24 14:40:00,61.2,42.9,23.17,NNW,346,5.0,6.0,51,0.00,,,0.00,352,Wunderground v.1.15,2013-07-24 18:40:00,
2013-07-24 14:50:00,60.6,43.4,23.17,WNW,286,4.0,5.0,53,0.00,,,0.00,418,Wunderground v.1.15,2013-07-24 18:50:00,
2013-07-24 15:10:00,61.1,43.8,23.17,North,360,4.0,4.0,53,0.00,,,0.00,367,Wunderground v.1.15,2013-07-24 19:10:00,
2013-07-24 15:20:00,60.8,44.5,23.18,NNE,16,5.0,5.0,55,0.00,,,0.00,418,Wunderground v.1.15,2013-07-24 19:20:00,
2013-07-24 15:40:00,61.9,44.1,23.18,NNW,333,5.0,5.0,52,0.00,,,0.00,383,Wunderground v.1.15,2013-07-24 19:40:00,
2013-07-24 15:50:00,61.1,42.8,23.18,NW,311,5.0,7.0,51,0.00,,,0.00,336,Wunderground v.1.15,2013-07-24 19:50:00,
2013-07-24 16:00:00,60.8,43.1,23.18,NW,324,5.0,5.0,52,0.00,,,0.00,306,Wunderground v.1.15,2013-07-24 20:00:00,
2013-07-24 16:10:00,61.4,44.1,23.18,NNW,330,3.0,6.0,53,0.00,,,0.00,441,Wunderground v.1.15,2013-07-24 20:10:00,
2013-07-24 16:20:00,61.5,43.7,23.18,NW,304,4.0,6.0,52,0.00,,,0.00,295,Wunderground v.1.15,2013-07-24 20:20:00,
2013-07-24 16:40:00,61.5,44.2,23.18,WNW,295,5.0,5.0,53,0.00,,,0.00,334,Wunderground v.1.15,2013-07-24 20:40:00,
2013-07-24 16:50:00,61.4,43.6,23.18,NNW,348,5.0,5.0,52,0.00,,,0.00,253,Wunderground v.1.15,2013-07-24 20:50:00,
2013-07-24 17:10:00,60.4,43.2,23.18,North,360,6.0,6.0,53,0.00,,,0.00,250,Wunderground v.1.15,2013-07-24 21:10:00,
2013-07-24 17:20:00,61.1,43.3,23.18,North,351,5.0,8.0,52,0.00,,,0.00,492,Wunderground v.1.15,2013-07-24 21:20:00,
2013-07-24 17:30:00,61.9,43.6,23.18,NNE,19,5.0,11.0,51,0.00,,,0.00,225,Wunderground v.1.15,2013-07-24 21:30:00,
2013-07-24 17:40:00,60.4,43.2,23.19,North,360,5.0,5.0,53,0.00,,,0.00,181,Wunderground v.1.15,2013-07-24 21:40:00,
2013-07-24 17:50:00,60.1,43.9,23.19,NNW,327,3.0,4.0,55,0.00,,,0.00,169,Wunderground v.1.15,2013-07-24 21:50:00,
2013-07-24 18:10:00,60.4,43.2,23.19,NNW,348,3.0,3.0,53,0.00,,,0.00,155,Wunderground v.1.15,2013-07-24 22:10:00,
2013-07-24 18:20:00,60.6,43.4,23.19,NNW,333,4.0,5.0,53,0.00,,,0.00,229,Wunderground v.1.15,2013-07-24 22:20:00,
2013-07-24 18:40:00,60.3,43.6,23.19,NNE,22,3.0,3.0,54,0.00,,,0.00,125,Wunderground v.1.15,2013-07-24 22:40:00,
2013-07-24 18:50:00,60.3,44.1,23.19,North,360,2.0,3.0,55,0.00,,,0.00,113,Wunderground v.1.15,2013-07-24 22:50:00,
2013-07-24 19:01:00,60.4,43.7,23.19,North,350,4.0,4.0,54,0.00,,,0.00,165,Wunderground v.1.15,2013-07-24 23:01:00,
2013-07-24 19:10:00,61.1,43.8,23.19,NNE,12,3.0,4.0,53,0.00,,,0.00,104,Wunderground v.1.15,2013-07-24 23:10:00,
2013-07-24 19:20:00,60.9,44.6,23.20,North,351,2.0,2.0,55,0.00,,,0.00,211,Wunderground v.1.15,2013-07-24 23:20:00,
2013-07-24 19:40:00,59.7,44.4,23.20,NNE,19,1.0,1.0,57,0.00,,,0.00,28,Wunderground v.1.15,2013-07-24 23:40:00,
2013-07-24 19:50:00,58.9,45.0,23.20,NNE,19,0.0,0.0,60,0.00,,,0.00,23,Wunderground v.1.15,2013-07-24 23:50:00,
2013-07-24 20:10:00,57.4,46.9,23.20,NNE,19,0.0,0.0,68,0.00,,,0.00,28,Wunderground v.1.15,2013-07-25 00:10:00,
2013-07-24 20:20:00,56.6,47.7,23.20,NNE,19,0.0,0.0,72,0.00,,,0.00,12,Wunderground v.1.15,2013-07-25 00:20:00,
2013-07-24 20:30:00,56.1,47.6,23.20,NNE,18,0.0,0.0,73,0.00,,,0.00,5,Wunderground v.1.15,2013-07-25 00:30:00,
2013-07-24 20:40:00,55.8,46.5,23.20,NNE,19,0.0,0.0,71,0.00,,,0.00,0,Wunderground v.1.15,2013-07-25 00:40:00,
2013-07-24 20:50:00,55.6,47.4,23.20,NNE,19,0.0,0.0,74,0.00,,,0.00,0,Wunderground v.1.15,2013-07-25 00:50:00,
2013-07-24 21:10:00,54.3,47.2,23.20,NNE,19,0.0,0.0,77,0.00,,,0.00,0,Wunderground v.1.15,2013-07-25 01:10:00,
2013-07-24 21:20:00,53.7,47.3,23.21,NNE,19,0.0,0.0,79,0.00,,,0.00,0,Wunderground v.1.15,2013-07-25 01:20:00,
2013-07-24 21:40:00,51.3,46.0,23.21,NNE,19,0.0,0.0,82,0.00,,,0.00,0,Wunderground v.1.15,2013-07-25 01:40:00,
2013-07-24 21:50:00,50.7,45.7,23.21,NNE,19,0.0,0.0,83,0.00,,,0.00,0,Wunderground v.1.15,2013-07-25 01:50:00,
2013-07-24 22:10:00,49.7,45.4,23.21,NNE,19,0.0,0.0,85,0.00,,,0.00,0,Wunderground v.1.15,2013-07-25 02:10:00,
2013-07-24 22:20:00,49.3,45.3,23.21,NNE,19,0.0,0.0,86,0.00,,,0.00,0,Wunderground v.1.15,2013-07-25 02:20:00,
2013-07-24 22:40:00,49.1,45.7,23.21,NNE,19,0.0,0.0,88,0.00,,,0.00,0,Wunderground v.1.15,2013-07-25 02:40:00,
2013-07-24 22:50:00,48.4,45.0,23.21,NNE,19,0.0,0.0,88,0.00,,,0.00,0,Wunderground v.1.15,2013-07-25 02:50:00,
2013-07-24 23:01:00,47.9,44.5,23.21,NNE,19,0.0,0.0,88,0.00,,,0.00,0,Wunderground v.1.15,2013-07-25 03:01:00,
2013-07-24 23:40:00,47.8,44.7,23.22,NNE,19,0.0,0.0,89,0.00,,,0.00,0,Wunderground v.1.15,2013-07-25 03:40:00,
2013-07-24 23:50:00,47.8,44.7,23.22,NNE,18,0.0,0.0,89,0.00,,,0.00,0,Wunderground v.1.15,2013-07-25 03:50:00,